EKSB/SGD METAR and TAF weather

Enter ICAO airport designator
Station Type Date Time Source
EKSB METAR 2019/02/17 08:20 UTC NOAA

EKSB 170820Z AUTO 21005KT 5000NDV OVC016/// 08/07 Q1022


Station Type Date Time Source
EKSB Decoded METAR 2019/02/17 08:20 UTC NOAA

Soenderborg Lufthavn, Denmark (EKSB) 54-58N 009-47E 14M
Feb 17, 2019 - 03:20 AM EST / 2019.02.17 0820 UTC
Wind: from the SSW (210 degrees) at 6 MPH (5 KT):0
Sky conditions: overcast
Temperature: 46 F (8 C)
Dew Point: 44 F (7 C)
Relative Humidity: 93%
Pressure (altimeter): 30.18 in. Hg (1022 hPa)
ob: EKSB 170820Z AUTO 21005KT 5000NDV OVC016/// 08/07 Q1022
cycle: 8

Station Type Date Time Source
EKSB TAF 2016/01/27 09:03 UTC NOAA

TAF TAF EKSB 270856Z 2709/2721 23022KT 5000 -RA BR BKN008
TEMPO 2709/2721 24025G40KT 2000 RADZ BKN004


Example: see airport list